createdAt,value
2017-08-07T00:02:15.472Z,84.31
2017-08-07T00:04:43.129Z,84.31
2017-08-07T00:07:10.800Z,84.36
2017-08-07T00:09:38.433Z,84.33
2017-08-07T00:12:06.079Z,84.61
2017-08-07T00:14:33.727Z,84.68
2017-08-07T00:17:01.382Z,84.40
2017-08-07T00:19:28.992Z,84.25
2017-08-07T00:21:56.948Z,83.95
2017-08-07T00:24:24.541Z,83.82
2017-08-07T00:26:52.164Z,83.92
2017-08-07T00:29:19.807Z,83.98
2017-08-07T00:31:48.264Z,84.16
2017-08-07T00:34:15.894Z,84.21
2017-08-07T00:36:43.509Z,84.08
2017-08-07T00:39:11.411Z,84.29
2017-08-07T00:41:39.046Z,84.51
2017-08-07T00:44:06.677Z,84.69
2017-08-07T00:46:34.299Z,84.75
2017-08-07T00:49:01.913Z,84.72
2017-08-07T00:51:31.731Z,84.78
2017-08-07T00:53:59.341Z,84.90
2017-08-07T00:56:27.287Z,84.95
2017-08-07T00:58:54.888Z,84.89
2017-08-07T01:01:22.580Z,84.88
2017-08-07T01:03:50.335Z,84.95
2017-08-07T01:06:18.000Z,84.90
2017-08-07T01:08:45.647Z,84.82
2017-08-07T01:11:13.258Z,84.60
2017-08-07T01:13:40.889Z,84.04
2017-08-07T01:16:08.502Z,83.65
2017-08-07T01:18:36.433Z,83.55
2017-08-07T01:21:04.047Z,83.53
2017-08-07T01:23:31.705Z,83.76
2017-08-07T01:25:59.582Z,83.80
2017-08-07T01:28:27.199Z,84.00
2017-08-07T01:30:54.856Z,84.08
2017-08-07T01:33:23.518Z,84.23
2017-08-07T01:35:51.157Z,84.27
2017-08-07T01:38:18.789Z,84.27
2017-08-07T01:40:46.379Z,84.43
2017-08-07T01:43:14.011Z,84.23
2017-08-07T01:45:41.644Z,84.13
2017-08-07T01:48:09.624Z,84.24
2017-08-07T01:50:37.239Z,84.28
2017-08-07T01:53:04.864Z,84.10
2017-08-07T01:55:32.509Z,83.94
2017-08-07T01:58:00.131Z,83.88
2017-08-07T02:00:27.764Z,83.39
2017-08-07T02:02:55.377Z,82.75
2017-08-07T02:05:23.365Z,82.79
2017-08-07T02:07:50.990Z,83.42
2017-08-07T02:10:19.286Z,83.65
2017-08-07T02:12:46.931Z,84.11
2017-08-07T02:15:14.545Z,84.55
2017-08-07T02:17:42.179Z,84.77
2017-08-07T02:20:10.777Z,84.54
2017-08-07T02:22:38.459Z,84.05
2017-08-07T02:25:06.074Z,84.18
2017-08-07T02:27:34.096Z,84.15
2017-08-07T02:30:01.806Z,84.25
2017-08-07T02:32:29.519Z,84.43
2017-08-07T02:34:57.144Z,84.21
2017-08-07T02:37:24.748Z,83.89
2017-08-07T02:39:52.574Z,83.43
2017-08-07T02:42:20.200Z,83.54
2017-08-07T02:44:47.859Z,83.86
2017-08-07T02:47:15.493Z,84.21
2017-08-07T02:49:43.542Z,84.14
2017-08-07T02:52:11.374Z,84.28
2017-08-07T02:54:39.116Z,84.50
2017-08-07T02:57:06.997Z,85.02
2017-08-07T02:59:34.599Z,85.26
2017-08-07T03:02:02.250Z,85.72
2017-08-07T03:04:32.891Z,85.98
2017-08-07T03:07:00.865Z,86.24
2017-08-07T03:09:28.472Z,86.89
2017-08-07T03:11:57.861Z,87.08
2017-08-07T03:14:26.557Z,87.45
2017-08-07T03:16:54.266Z,87.64
2017-08-07T03:19:22.255Z,87.98
2017-08-07T03:21:49.890Z,88.48
2017-08-07T03:24:17.533Z,88.49
2017-08-07T03:26:46.071Z,88.72
2017-08-07T03:29:13.676Z,89.33
2017-08-07T03:31:41.325Z,89.20
2017-08-07T03:34:08.942Z,89.34
2017-08-07T03:36:36.919Z,89.31
2017-08-07T03:39:04.527Z,89.23
2017-08-07T03:41:32.140Z,89.27
2017-08-07T03:43:59.794Z,89.59
2017-08-07T03:46:27.410Z,89.87
2017-08-07T03:48:55.033Z,89.83
2017-08-07T03:51:22.667Z,89.98
2017-08-07T03:53:50.637Z,89.79
2017-08-07T03:56:18.352Z,89.53
2017-08-07T03:58:46.045Z,89.61
2017-08-07T04:01:13.718Z,89.49
2017-08-07T04:03:41.310Z,89.36
2017-08-07T04:06:08.959Z,89.20
2017-08-07T04:08:36.576Z,89.14
2017-08-07T04:11:04.315Z,89.10
2017-08-07T04:13:31.955Z,89.02
2017-08-07T04:15:59.554Z,89.02
2017-08-07T04:18:27.216Z,89.08
2017-08-07T04:20:54.921Z,89.10
2017-08-07T04:23:22.613Z,89.37
2017-08-07T04:25:50.253Z,89.65
2017-08-07T04:28:17.896Z,89.84
2017-08-07T04:30:45.507Z,89.88
2017-08-07T04:33:13.159Z,89.90
2017-08-07T04:35:40.784Z,90.02
2017-08-07T04:38:08.772Z,90.17
2017-08-07T04:40:36.391Z,89.91
2017-08-07T04:43:04.178Z,89.73
2017-08-07T04:45:31.831Z,89.76
2017-08-07T04:47:59.474Z,89.74
2017-08-07T04:50:27.200Z,89.71
2017-08-07T04:52:54.924Z,89.24
2017-08-07T04:55:22.827Z,89.07
2017-08-07T04:57:50.753Z,89.26
2017-08-07T05:00:18.382Z,89.05
2017-08-07T05:02:46.028Z,88.87
2017-08-07T05:05:13.836Z,89.21
2017-08-07T05:07:41.482Z,89.27
2017-08-07T05:10:09.126Z,89.32
2017-08-07T05:12:36.885Z,89.07
2017-08-07T05:15:04.968Z,88.93
2017-08-07T05:17:32.988Z,88.71
2017-08-07T05:20:00.628Z,88.40
2017-08-07T05:22:28.252Z,88.39
2017-08-07T05:24:55.911Z,88.24
2017-08-07T05:27:23.510Z,88.31
2017-08-07T05:29:51.191Z,88.20
2017-08-07T05:32:18.834Z,88.08
2017-08-07T05:34:46.549Z,87.93
2017-08-07T05:37:14.182Z,88.05
2017-08-07T05:39:42.155Z,87.89
2017-08-07T05:42:09.806Z,87.76
2017-08-07T05:44:37.521Z,87.80
2017-08-07T05:47:05.158Z,87.62
2017-08-07T05:49:32.778Z,87.40
2017-08-07T05:52:00.498Z,87.68
2017-08-07T05:54:28.111Z,87.65
2017-08-07T05:56:56.122Z,87.64
2017-08-07T05:59:23.773Z,88.20
2017-08-07T06:01:51.404Z,87.60
2017-08-07T06:04:19.034Z,87.12
2017-08-07T06:06:46.649Z,86.63
2017-08-07T06:09:14.301Z,86.24
2017-08-07T06:11:41.913Z,86.38
2017-08-07T06:14:09.675Z,86.07
2017-08-07T06:16:37.378Z,86.45
2017-08-07T06:19:05.679Z,85.71
2017-08-07T06:21:33.382Z,85.53
2017-08-07T06:24:01.005Z,85.72
2017-08-07T06:26:28.647Z,85.43
2017-08-07T06:28:56.280Z,84.96
2017-08-07T06:31:23.908Z,85.04
2017-08-07T06:33:51.522Z,85.05
2017-08-07T06:36:19.432Z,84.84
2017-08-07T06:38:47.063Z,85.12
2017-08-07T06:41:14.765Z,84.43
2017-08-07T06:43:42.421Z,84.42
2017-08-07T06:46:10.397Z,84.64
2017-08-07T06:48:38.071Z,84.54
2017-08-07T06:51:05.686Z,84.59
2017-08-07T06:53:33.323Z,84.40
2017-08-07T06:56:01.059Z,84.38
2017-08-07T06:58:29.022Z,84.13
2017-08-07T07:00:56.840Z,83.86
2017-08-07T07:03:24.552Z,84.04
2017-08-07T07:05:52.304Z,84.21
2017-08-07T07:08:19.978Z,84.03
2017-08-07T07:10:47.613Z,83.84
2017-08-07T07:13:15.242Z,83.78
2017-08-07T07:15:42.870Z,82.45
2017-08-07T07:18:12.995Z,82.59
2017-08-07T07:20:40.657Z,82.15
2017-08-07T07:23:08.263Z,81.90
2017-08-07T07:25:36.308Z,82.23
2017-08-07T07:28:04.034Z,81.81
2017-08-07T07:30:32.340Z,81.55
2017-08-07T07:32:59.983Z,81.54
2017-08-07T07:35:27.612Z,80.91
2017-08-07T07:37:55.427Z,80.96
2017-08-07T07:40:23.086Z,80.09
2017-08-07T07:42:51.114Z,78.85
2017-08-07T07:45:18.745Z,78.37
2017-08-07T07:47:46.366Z,78.71
2017-08-07T07:50:14.222Z,78.82
2017-08-07T07:52:41.910Z,78.38
2017-08-07T07:55:09.550Z,78.12
2017-08-07T07:57:37.161Z,77.77
2017-08-07T08:00:04.808Z,77.43
2017-08-07T08:02:32.466Z,77.79
2017-08-07T08:05:00.104Z,77.56
2017-08-07T08:07:27.756Z,78.30
2017-08-07T08:09:55.804Z,77.80
2017-08-07T08:12:23.404Z,77.81
2017-08-07T08:14:51.029Z,77.69
2017-08-07T08:17:18.675Z,77.36
2017-08-07T08:19:46.304Z,77.16
2017-08-07T08:22:14.328Z,77.05
2017-08-07T08:24:41.951Z,76.58
2017-08-07T08:27:09.849Z,77.61
2017-08-07T08:29:37.497Z,77.10
2017-08-07T08:32:05.112Z,76.19
2017-08-07T08:34:32.757Z,75.17
2017-08-07T08:37:00.388Z,75.28
2017-08-07T08:39:28.368Z,75.00
2017-08-07T08:41:55.998Z,74.31
2017-08-07T08:44:23.620Z,74.82
2017-08-07T08:46:51.239Z,74.72
2017-08-07T08:49:18.868Z,75.22
2017-08-07T08:51:46.519Z,74.52
2017-08-07T08:54:14.280Z,74.74
2017-08-07T08:56:42.023Z,74.59
2017-08-07T08:59:09.640Z,74.69
2017-08-07T09:01:37.279Z,74.09
2017-08-07T09:04:04.937Z,73.63
2017-08-07T09:06:33.359Z,73.27
2017-08-07T09:09:01.251Z,72.89
2017-08-07T09:11:28.886Z,71.97
2017-08-07T09:13:56.610Z,71.43
2017-08-07T09:16:24.524Z,70.73
2017-08-07T09:18:52.147Z,69.68
2017-08-07T09:21:19.770Z,69.66
2017-08-07T09:23:47.406Z,70.21
2017-08-07T09:26:15.399Z,69.35
2017-08-07T09:28:43.044Z,67.90
2017-08-07T09:31:10.669Z,66.87
2017-08-07T09:33:38.316Z,66.26
2017-08-07T09:36:05.943Z,62.69
2017-08-07T09:38:33.583Z,62.35
2017-08-07T09:41:01.312Z,62.86
2017-08-07T09:43:28.960Z,61.64
2017-08-07T09:45:56.579Z,63.05
2017-08-07T09:48:24.485Z,61.68
2017-08-07T09:50:52.115Z,60.54
2017-08-07T09:53:19.714Z,60.00
2017-08-07T09:55:47.495Z,61.18
2017-08-07T09:58:15.205Z,60.11
2017-08-07T10:00:43.595Z,59.88
2017-08-07T10:03:11.209Z,60.25
2017-08-07T10:05:38.843Z,60.02
2017-08-07T10:08:06.503Z,60.45
2017-08-07T10:10:34.108Z,59.23
2017-08-07T10:13:01.751Z,59.49
2017-08-07T10:15:29.366Z,58.90
2017-08-07T10:17:57.316Z,59.05
2017-08-07T10:20:24.931Z,57.87
2017-08-07T10:22:52.664Z,58.74
2017-08-07T10:25:20.336Z,57.96
2017-08-07T10:27:48.041Z,57.46
2017-08-07T10:30:15.680Z,57.22
2017-08-07T10:32:43.312Z,57.19
2017-08-07T10:35:11.402Z,58.91
2017-08-07T10:37:40.090Z,59.14
2017-08-07T10:40:07.792Z,60.65
2017-08-07T10:42:35.438Z,59.10
2017-08-07T10:45:03.054Z,57.76
2017-08-07T10:47:30.711Z,57.41
2017-08-07T10:49:58.354Z,57.18
2017-08-07T10:52:25.988Z,57.28
2017-08-07T10:54:53.611Z,57.44
2017-08-07T10:57:21.562Z,57.37
2017-08-07T10:59:49.192Z,58.29
2017-08-07T11:02:16.799Z,58.16
2017-08-07T11:04:44.435Z,58.49
2017-08-07T11:07:12.061Z,56.79
2017-08-07T11:09:39.705Z,57.27
2017-08-07T11:12:07.414Z,57.46
2017-08-07T11:14:35.081Z,56.93
2017-08-07T11:17:02.699Z,55.89
2017-08-07T11:19:30.709Z,57.09
2017-08-07T11:21:58.343Z,55.96
2017-08-07T11:24:25.962Z,55.86
2017-08-07T11:26:53.598Z,56.25
2017-08-07T11:29:21.217Z,56.62
2017-08-07T11:31:48.874Z,56.04
2017-08-07T11:34:16.503Z,56.16
2017-08-07T11:36:44.435Z,56.82
2017-08-07T11:39:12.066Z,57.17
2017-08-07T11:41:39.697Z,56.03
2017-08-07T11:44:07.341Z,55.56
2017-08-07T11:46:34.944Z,53.44
2017-08-07T11:49:02.586Z,55.20
2017-08-07T11:51:30.196Z,55.68
2017-08-07T11:53:58.204Z,55.53
2017-08-07T11:56:25.864Z,53.81
2017-08-07T11:58:53.471Z,53.14
2017-08-07T12:01:21.106Z,53.87
2017-08-07T12:03:48.704Z,53.27
2017-08-07T12:06:16.755Z,53.87
2017-08-07T12:08:44.371Z,53.64
2017-08-07T12:11:11.993Z,53.78
2017-08-07T12:13:39.626Z,51.80
2017-08-07T12:16:07.250Z,50.53
2017-08-07T12:18:35.907Z,51.80
2017-08-07T12:21:03.517Z,51.99
2017-08-07T12:23:31.154Z,52.74
2017-08-07T12:25:58.855Z,51.04
2017-08-07T12:28:26.813Z,52.31
2017-08-07T12:30:54.426Z,50.44
2017-08-07T12:33:22.057Z,50.16
2017-08-07T12:35:49.700Z,50.79
2017-08-07T12:38:17.309Z,51.65
2017-08-07T12:40:44.942Z,50.44
2017-08-07T12:43:12.981Z,51.37
2017-08-07T12:45:40.653Z,50.80
2017-08-07T12:48:08.260Z,50.98
2017-08-07T12:50:36.329Z,50.75
2017-08-07T12:53:03.940Z,50.79
2017-08-07T12:55:31.573Z,52.01
2017-08-07T12:57:59.235Z,50.67
2017-08-07T13:00:26.920Z,50.30
2017-08-07T13:02:54.565Z,51.49
2017-08-07T13:05:22.186Z,49.31
2017-08-07T13:07:50.158Z,48.53
2017-08-07T13:10:17.758Z,49.63
2017-08-07T13:12:45.368Z,50.90
2017-08-07T13:15:13.097Z,48.82
2017-08-07T13:17:40.720Z,48.92
2017-08-07T13:20:08.430Z,48.89
2017-08-07T13:22:36.110Z,49.57
2017-08-07T13:25:03.888Z,48.61
2017-08-07T13:27:31.506Z,49.42
2017-08-07T13:29:59.503Z,49.18
2017-08-07T13:32:27.129Z,49.94
2017-08-07T13:34:54.755Z,47.96
2017-08-07T13:37:22.425Z,46.01
2017-08-07T13:39:50.672Z,47.95
2017-08-07T13:42:18.308Z,47.61
2017-08-07T13:44:45.926Z,47.90
2017-08-07T13:47:13.593Z,46.69
2017-08-07T13:49:41.222Z,48.54
2017-08-07T13:52:09.266Z,48.29
2017-08-07T13:54:36.939Z,46.66
2017-08-07T13:57:04.586Z,46.40
2017-08-07T13:59:32.224Z,46.60
2017-08-07T14:01:59.849Z,46.84
2017-08-07T14:04:27.531Z,45.81
2017-08-07T14:06:55.165Z,47.50
2017-08-07T14:09:23.114Z,44.99
2017-08-07T14:11:50.736Z,44.63
2017-08-07T14:14:18.378Z,44.79
2017-08-07T14:16:46.123Z,44.33
2017-08-07T14:19:13.830Z,44.17
2017-08-07T14:21:41.511Z,43.48
2017-08-07T14:24:09.132Z,42.72
2017-08-07T14:26:36.888Z,43.63
2017-08-07T14:29:04.528Z,40.49
2017-08-07T14:31:32.482Z,40.38
2017-08-07T14:34:00.097Z,41.04
2017-08-07T14:36:27.733Z,39.55
2017-08-07T14:38:55.367Z,39.23
2017-08-07T14:41:23.073Z,38.49
2017-08-07T14:43:51.133Z,38.49
2017-08-07T14:46:18.761Z,37.56
2017-08-07T14:48:46.388Z,38.23
2017-08-07T14:51:14.032Z,38.72
2017-08-07T14:53:41.676Z,39.33
2017-08-07T14:56:09.309Z,38.98
2017-08-07T14:58:36.930Z,38.57
2017-08-07T15:01:04.560Z,37.52
2017-08-07T15:03:32.187Z,38.08
2017-08-07T15:06:00.276Z,37.21
2017-08-07T15:08:28.052Z,37.90
2017-08-07T15:10:55.681Z,39.51
2017-08-07T15:13:23.341Z,37.23
2017-08-07T15:15:51.032Z,36.97
2017-08-07T15:18:18.754Z,37.15
2017-08-07T15:20:46.476Z,37.72
2017-08-07T15:23:14.125Z,38.01
2017-08-07T15:25:41.750Z,39.45
2017-08-07T15:28:09.740Z,37.28
2017-08-07T15:30:37.359Z,36.71
2017-08-07T15:33:04.981Z,37.49
2017-08-07T15:35:32.607Z,37.14
2017-08-07T15:38:00.207Z,37.96
2017-08-07T15:40:28.153Z,36.63
2017-08-07T15:42:55.781Z,37.42
2017-08-07T15:45:23.408Z,36.83
2017-08-07T15:47:51.150Z,36.39
2017-08-07T15:50:18.784Z,36.95
2017-08-07T15:52:46.414Z,36.76
2017-08-07T15:55:14.032Z,37.13
2017-08-07T15:57:41.717Z,37.44
2017-08-07T16:00:09.320Z,38.38
2017-08-07T16:02:37.005Z,37.69
2017-08-07T16:05:04.625Z,37.73
2017-08-07T16:07:32.236Z,38.97
2017-08-07T16:09:59.894Z,38.79
2017-08-07T16:12:27.552Z,40.28
2017-08-07T16:14:55.804Z,40.54
2017-08-07T16:17:23.498Z,39.80
2017-08-07T16:19:51.123Z,40.48
2017-08-07T16:22:18.772Z,41.09
2017-08-07T16:24:46.395Z,41.73
2017-08-07T16:27:14.065Z,41.88
2017-08-07T16:29:53.598Z,41.92
2017-08-07T16:32:21.365Z,44.00
2017-08-07T16:34:48.998Z,43.94
2017-08-07T16:37:17.087Z,43.79
2017-08-07T16:39:44.715Z,44.64
2017-08-07T16:42:12.338Z,44.91
2017-08-07T16:44:40.023Z,44.74
2017-08-07T16:47:07.653Z,45.34
2017-08-07T16:49:35.417Z,45.71
2017-08-07T16:52:03.052Z,46.16
2017-08-07T16:54:30.795Z,46.11
2017-08-07T16:56:58.405Z,46.55
2017-08-07T16:59:26.389Z,46.41
2017-08-07T17:01:54.016Z,47.15
2017-08-07T17:04:21.715Z,46.92
2017-08-07T17:06:49.431Z,47.82
2017-08-07T17:09:17.170Z,46.83
2017-08-07T17:11:44.821Z,46.99
2017-08-07T17:14:12.454Z,46.78
2017-08-07T17:16:40.384Z,47.54
2017-08-07T17:19:08.021Z,47.32
2017-08-07T17:21:35.790Z,47.76
2017-08-07T17:24:03.409Z,48.10
2017-08-07T17:26:31.072Z,48.65
2017-08-07T17:28:59.014Z,48.91
2017-08-07T17:31:27.125Z,49.16
2017-08-07T17:33:54.759Z,49.55
2017-08-07T17:36:22.408Z,49.76
2017-08-07T17:38:50.027Z,49.80
2017-08-07T17:41:17.684Z,50.24
2017-08-07T17:43:45.338Z,50.38
2017-08-07T17:46:13.085Z,50.83
2017-08-07T17:48:40.793Z,50.41
2017-08-07T17:51:08.805Z,50.97
2017-08-07T17:53:36.421Z,51.18
2017-08-07T17:56:04.028Z,51.09
2017-08-07T17:58:31.693Z,50.94
2017-08-07T18:00:59.361Z,51.21
2017-08-07T18:03:27.014Z,51.33
2017-08-07T18:05:54.643Z,51.55
2017-08-07T18:08:22.644Z,51.74
2017-08-07T18:10:50.290Z,51.77
2017-08-07T18:13:17.913Z,51.82
2017-08-07T18:15:45.548Z,52.34
2017-08-07T18:18:13.612Z,52.48
2017-08-07T18:20:41.321Z,52.74
2017-08-07T18:23:08.980Z,52.92
2017-08-07T18:25:37.133Z,52.93
2017-08-07T18:28:04.764Z,53.55
2017-08-07T18:30:32.496Z,53.74
2017-08-07T18:33:00.228Z,54.10
2017-08-07T18:35:27.896Z,54.27
2017-08-07T18:37:55.532Z,54.21
2017-08-07T18:40:23.158Z,54.49
2017-08-07T18:42:51.701Z,54.91
2017-08-07T18:45:19.325Z,54.57
2017-08-07T18:47:47.090Z,55.12
2017-08-07T18:50:14.725Z,55.20
2017-08-07T18:52:42.603Z,55.46
2017-08-07T18:55:10.274Z,55.74
2017-08-07T18:57:37.973Z,55.98
2017-08-07T19:00:05.668Z,55.93
2017-08-07T19:02:33.979Z,56.33
2017-08-07T19:05:01.635Z,56.56
2017-08-07T19:07:29.328Z,56.81
2017-08-07T19:09:58.214Z,57.03
2017-08-07T19:12:26.023Z,57.20
2017-08-07T19:14:53.671Z,57.33
2017-08-07T19:17:21.310Z,57.47
2017-08-07T19:19:48.916Z,57.64
2017-08-07T19:22:17.493Z,57.86
2017-08-07T19:24:45.217Z,57.98
2017-08-07T19:27:13.156Z,58.20
2017-08-07T19:29:42.221Z,58.27
2017-08-07T19:32:09.828Z,58.35
2017-08-07T19:34:37.650Z,58.50
2017-08-07T19:37:05.375Z,58.74
2017-08-07T19:39:33.135Z,59.13
2017-08-07T19:42:00.747Z,59.26
2017-08-07T19:44:28.478Z,59.38
2017-08-07T19:46:56.084Z,59.85
2017-08-07T19:49:24.163Z,59.92
2017-08-07T19:51:51.865Z,60.41
2017-08-07T19:54:19.649Z,60.51
2017-08-07T19:56:47.291Z,60.84
2017-08-07T19:59:14.918Z,60.81
2017-08-07T20:01:42.612Z,60.83
2017-08-07T20:04:10.240Z,61.04
2017-08-07T20:06:38.114Z,60.81
2017-08-07T20:09:05.856Z,61.00
2017-08-07T20:11:33.606Z,61.06
2017-08-07T20:14:01.331Z,61.29
2017-08-07T20:16:29.379Z,61.62
2017-08-07T20:18:57.023Z,61.74
2017-08-07T20:21:24.649Z,61.94
2017-08-07T20:23:52.306Z,62.29
2017-08-07T20:26:19.941Z,62.36
2017-08-07T20:28:47.614Z,62.54
2017-08-07T20:31:15.199Z,62.77
2017-08-07T20:33:42.824Z,62.85
2017-08-07T20:36:10.434Z,63.02
2017-08-07T20:38:40.145Z,63.15
2017-08-07T20:41:07.769Z,63.25
2017-08-07T20:43:35.373Z,63.51
2017-08-07T20:46:03.026Z,63.57
2017-08-07T20:48:30.635Z,63.43
2017-08-07T20:50:58.236Z,64.03
2017-08-07T20:53:25.854Z,64.04
2017-08-07T20:55:54.163Z,64.43
2017-08-07T20:58:21.795Z,64.21
2017-08-07T21:00:49.507Z,64.05
2017-08-07T21:03:17.145Z,64.67
2017-08-07T21:05:44.764Z,64.86
2017-08-07T21:08:12.386Z,64.83
2017-08-07T21:10:39.997Z,65.02
2017-08-07T21:13:07.661Z,65.18
2017-08-07T21:15:35.259Z,65.39
2017-08-07T21:18:03.206Z,65.37
2017-08-07T21:20:30.857Z,65.59
2017-08-07T21:22:58.478Z,65.28
2017-08-07T21:25:26.133Z,65.47
2017-08-07T21:27:53.764Z,65.29
2017-08-07T21:30:21.661Z,65.42
2017-08-07T21:32:49.250Z,65.67
2017-08-07T21:35:16.854Z,65.72
2017-08-07T21:37:44.503Z,65.86
2017-08-07T21:40:12.118Z,66.42
2017-08-07T21:42:39.750Z,66.22
2017-08-07T21:45:07.370Z,66.28
2017-08-07T21:47:34.993Z,66.31
2017-08-07T21:50:02.599Z,66.50
2017-08-07T21:52:30.224Z,66.38
2017-08-07T21:54:57.818Z,66.69
2017-08-07T21:57:25.879Z,66.59
2017-08-07T21:59:53.484Z,66.80
2017-08-07T22:02:21.100Z,66.70
2017-08-07T22:04:48.729Z,66.66
2017-08-07T22:07:16.325Z,67.02
2017-08-07T22:09:44.038Z,66.98
2017-08-07T22:12:11.650Z,67.26
2017-08-07T22:14:39.623Z,67.41
2017-08-07T22:17:07.225Z,67.23
2017-08-07T22:19:34.830Z,67.16
2017-08-07T22:22:02.474Z,67.24
2017-08-07T22:24:30.074Z,67.24
2017-08-07T22:26:57.722Z,67.70
2017-08-07T22:29:25.389Z,68.04
2017-08-07T22:31:53.050Z,67.79
2017-08-07T22:34:20.647Z,67.22
2017-08-07T22:36:48.595Z,67.68
2017-08-07T22:39:16.210Z,67.77
2017-08-07T22:41:43.815Z,67.98
2017-08-07T22:44:11.477Z,67.93
2017-08-07T22:46:39.200Z,67.75
2017-08-07T22:49:06.902Z,67.78
2017-08-07T22:51:34.590Z,68.24
2017-08-07T22:54:02.220Z,67.90
2017-08-07T22:56:29.842Z,67.86
2017-08-07T22:58:57.472Z,67.96
2017-08-07T23:01:25.073Z,68.29
2017-08-07T23:03:53.103Z,68.22
2017-08-07T23:06:20.708Z,68.01
2017-08-07T23:08:48.316Z,68.15
2017-08-07T23:11:16.009Z,68.24
2017-08-07T23:13:43.609Z,68.22
2017-08-07T23:16:11.308Z,68.40
2017-08-07T23:18:38.909Z,68.68
2017-08-07T23:21:06.827Z,68.64
2017-08-07T23:23:34.426Z,68.71
2017-08-07T23:26:02.053Z,68.64
2017-08-07T23:28:29.703Z,68.83
2017-08-07T23:30:57.314Z,68.74
2017-08-07T23:33:24.952Z,68.98
2017-08-07T23:35:52.556Z,69.23
2017-08-07T23:38:20.552Z,69.04
2017-08-07T23:40:48.135Z,69.58
2017-08-07T23:43:15.739Z,69.43
2017-08-07T23:45:43.448Z,68.90
2017-08-07T23:48:11.041Z,69.25
2017-08-07T23:50:38.650Z,69.16
2017-08-07T23:53:06.251Z,69.64
2017-08-07T23:55:34.180Z,69.63
2017-08-07T23:58:01.785Z,70.03
